Time;durP1;ratioP1;P1;durP2;ratioP2;P2;SDS_P1;SDS_P2;PMS_P1;PMS_P2;Temp;Humidity;BMP_temperature;BMP_pressure;BME280_temperature;BME280_humidity;BME280_pressure;Samples;Min_cycle;Max_cycle;Signal;HPM_P1;HPM_P2
2022/12/25 00:01:33;;;;;;;2.63;1.73;;;7.20;99.90;;;;;;4128784;28;20190;-65
2022/12/25 00:03:33;;;;;;;2.43;1.77;;;7.20;99.90;;;;;;4133979;28;20190;-62
2022/12/25 00:05:38;;;;;;;2.60;2.00;;;7.20;99.90;;;;;;4142463;28;20224;-62
2022/12/25 00:07:38;;;;;;;1.40;1.23;;;7.10;99.90;;;;;;4132385;28;20218;-63
2022/12/25 00:09:39;;;;;;;2.00;1.40;;;7.00;99.90;;;;;;4143287;28;20188;-63
2022/12/25 00:11:39;;;;;;;1.93;1.47;;;7.10;99.90;;;;;;4133434;28;20194;-64
2022/12/25 00:13:42;;;;;;;2.00;1.40;;;7.10;99.90;;;;;;4143519;28;20201;-64
2022/12/25 00:15:42;;;;;;;2.03;1.30;;;7.10;99.90;;;;;;4128234;28;20196;-64
2022/12/25 00:17:43;;;;;;;1.40;1.27;;;7.10;99.90;;;;;;4143153;28;20186;-64
2022/12/25 00:19:43;;;;;;;2.03;1.20;;;7.10;99.90;;;;;;4132325;28;20237;-64
2022/12/25 00:21:44;;;;;;;1.70;1.20;;;7.10;99.90;;;;;;4143939;28;20188;-64
2022/12/25 00:23:45;;;;;;;1.30;1.10;;;7.10;99.90;;;;;;4132079;28;20202;-64
2022/12/25 00:25:46;;;;;;;1.80;1.13;;;7.10;99.90;;;;;;4150958;28;20205;-64
2022/12/25 00:27:47;;;;;;;1.27;1.13;;;7.20;99.90;;;;;;4136795;28;20685;-64
2022/12/25 00:29:47;;;;;;;1.63;1.27;;;7.20;99.90;;;;;;4150649;28;20186;-64
2022/12/25 00:31:48;;;;;;;1.63;1.10;;;7.20;99.90;;;;;;4138683;28;20240;-64
2022/12/25 00:33:50;;;;;;;2.60;1.10;;;7.10;99.90;;;;;;4151158;28;20186;-64
2022/12/25 00:36:00;;;;;;;2.30;1.17;;;7.00;99.90;;;;;;4138244;28;20741;-64
2022/12/25 00:38:01;;;;;;;1.57;1.00;;;7.00;99.90;;;;;;4152720;28;20205;-64
2022/12/25 00:40:01;;;;;;;1.20;1.10;;;7.00;99.90;;;;;;4121117;28;20225;-64
2022/12/25 00:42:17;;;;;;;1.23;1.07;;;7.00;99.90;;;;;;4152901;28;20189;-68
2022/12/25 00:44:18;;;;;;;1.70;1.10;;;7.10;99.90;;;;;;4138922;28;20193;-64
2022/12/25 00:46:19;;;;;;;1.60;1.00;;;7.20;99.90;;;;;;4134459;28;20187;-64
2022/12/25 00:48:19;;;;;;;1.93;1.00;;;7.20;99.90;;;;;;4138671;28;20225;-65
2022/12/25 00:50:20;;;;;;;2.33;1.20;;;7.40;99.90;;;;;;4150295;28;20651;-64
2022/12/25 00:52:21;;;;;;;1.00;0.90;;;7.40;99.90;;;;;;4122066;28;20205;-66
2022/12/25 00:54:22;;;;;;;1.30;0.90;;;7.50;99.90;;;;;;4139060;28;20185;-63
2022/12/25 00:56:22;;;;;;;1.00;0.90;;;7.50;99.90;;;;;;4149446;28;20178;-64
2022/12/25 00:58:25;;;;;;;0.70;0.70;;;7.50;99.90;;;;;;4139391;28;20611;-63
2022/12/25 01:00:25;;;;;;;3.10;1.10;;;7.60;99.90;;;;;;4152722;28;20212;-63
2022/12/25 01:02:26;;;;;;;1.20;1.10;;;7.60;99.90;;;;;;4153495;28;20193;-64
2022/12/25 01:04:27;;;;;;;1.40;0.63;;;7.60;99.90;;;;;;4152730;28;20316;-64
2022/12/25 01:06:27;;;;;;;0.90;0.80;;;7.70;99.90;;;;;;4152514;28;20260;-64
2022/12/25 01:08:31;;;;;;;0.70;0.70;;;7.80;99.90;;;;;;4134877;28;20225;-64
2022/12/25 01:10:31;;;;;;;0.90;0.60;;;7.70;99.90;;;;;;4122851;28;20190;-64
2022/12/25 01:12:37;;;;;;;0.80;0.70;;;7.70;99.90;;;;;;4104027;29;20267;-64
2022/12/25 01:14:37;;;;;;;0.90;0.80;;;7.70;99.90;;;;;;4121092;28;20183;-63
2022/12/25 01:16:38;;;;;;;1.77;0.70;;;7.80;99.90;;;;;;4120594;28;20183;-63
2022/12/25 01:18:39;;;;;;;1.00;0.90;;;7.80;99.90;;;;;;4103476;29;20217;-63
2022/12/25 01:20:39;;;;;;;0.83;0.83;;;7.80;99.90;;;;;;4129127;28;20196;-64
2022/12/25 01:22:41;;;;;;;1.00;0.83;;;7.90;99.90;;;;;;4138985;28;20190;-62
2022/12/25 01:24:43;;;;;;;3.20;0.90;;;7.80;99.90;;;;;;4128237;28;20279;-63
2022/12/25 01:26:44;;;;;;;0.80;0.80;;;7.70;99.90;;;;;;4133238;28;20182;-63
2022/12/25 01:28:45;;;;;;;0.87;0.70;;;7.70;99.90;;;;;;4137074;28;20224;-63
2022/12/25 01:30:49;;;;;;;1.50;0.70;;;7.70;99.90;;;;;;4120239;28;20195;-62
2022/12/25 01:32:49;;;;;;;0.70;0.70;;;7.70;99.90;;;;;;4139336;28;20182;-63
2022/12/25 01:34:50;;;;;;;0.97;0.80;;;7.80;99.90;;;;;;4139527;28;20244;-63
2022/12/25 01:36:51;;;;;;;0.60;0.60;;;7.90;99.90;;;;;;4117671;28;20677;-63
2022/12/25 01:38:53;;;;;;;1.27;1.00;;;7.90;99.90;;;;;;4116397;28;20309;-63
2022/12/25 01:40:54;;;;;;;0.90;0.87;;;7.70;99.90;;;;;;4116175;28;20262;-63
2022/12/25 01:42:54;;;;;;;1.10;0.90;;;7.70;99.90;;;;;;4133781;28;20187;-63
2022/12/25 01:45:33;;;;;;;1.17;0.90;;;7.50;99.90;;;;;;4132979;28;20221;-63
2022/12/25 01:47:33;;;;;;;0.80;0.80;;;7.50;99.90;;;;;;4132282;28;20232;-62
2022/12/25 01:49:38;;;;;;;1.57;0.93;;;7.40;99.90;;;;;;4132949;28;20728;-68
2022/12/25 01:51:44;;;;;;;1.00;0.80;;;7.30;99.90;;;;;;4115531;28;20732;-63
2022/12/25 01:53:44;;;;;;;1.00;0.80;;;7.40;99.90;;;;;;4115511;28;20625;-63
2022/12/25 01:55:49;;;;;;;0.80;0.73;;;7.50;99.90;;;;;;4132488;28;20272;-63
2022/12/25 01:57:50;;;;;;;1.20;1.10;;;7.50;99.90;;;;;;4114654;28;20220;-63
2022/12/25 01:59:52;;;;;;;1.00;0.90;;;7.60;99.90;;;;;;4115434;28;20202;-63
2022/12/25 02:01:53;;;;;;;1.07;0.60;;;7.60;99.90;;;;;;4115065;28;20224;-63
2022/12/25 02:04:03;;;;;;;0.70;0.70;;;7.70;99.90;;;;;;4132191;28;20191;-63
2022/12/25 02:06:04;;;;;;;1.07;1.00;;;7.80;99.90;;;;;;4114909;28;20186;-63
2022/12/25 02:08:11;;;;;;;0.80;0.70;;;7.80;99.90;;;;;;4131382;28;20738;-63
2022/12/25 02:10:12;;;;;;;1.03;0.93;;;7.90;99.90;;;;;;4132272;28;20625;-63
2022/12/25 02:12:30;;;;;;;0.80;0.80;;;7.90;99.90;;;;;;4132006;28;20185;-63
2022/12/25 02:14:34;;;;;;;1.43;0.83;;;8.00;99.90;;;;;;4132139;28;20170;-63
2022/12/25 02:16:40;;;;;;;0.70;0.70;;;8.10;99.90;;;;;;4114019;28;20179;-63
2022/12/25 02:18:55;;;;;;;0.60;0.60;;;7.90;99.90;;;;;;4114863;28;20320;-63
2022/12/25 02:21:48;;;;;;;0.70;0.60;;;7.90;99.90;;;;;;4132093;28;20546;-63
2022/12/25 02:24:35;;;;;;;1.80;0.73;;;8.00;99.90;;;;;;4132224;28;20183;-63
2022/12/25 02:27:22;;;;;;;0.90;0.80;;;7.90;99.90;;;;;;4122600;28;20670;-64
2022/12/25 02:29:47;;;;;;;1.00;0.80;;;8.00;99.90;;;;;;4035004;29;20379;-63
2022/12/25 02:32:15;;;;;;;1.07;0.70;;;7.90;99.90;;;;;;4035270;29;20220;-63
2022/12/25 02:34:25;;;;;;;0.90;0.77;;;7.80;99.90;;;;;;4068506;28;20206;-63
2022/12/25 02:36:39;;;;;;;0.90;0.90;;;7.80;99.90;;;;;;4097736;29;20267;-63
2022/12/25 02:39:56;;;;;;;2.53;0.80;;;7.80;99.90;;;;;;4113844;28;20237;-63
2022/12/25 02:41:12;;;;;;;1.10;0.80;;;7.70;99.90;;;;;;4117672;28;20211;-63
2022/12/25 03:07:27;;;;;;;1.77;1.00;;;7.60;99.90;;;;;;4115822;28;20262;-62
2022/12/25 03:12:08;;;;;;;1.43;1.03;;;7.60;99.90;;;;;;4100584;28;20227;-63
2022/12/25 03:18:47;;;;;;;1.00;0.83;;;7.70;99.90;;;;;;4132472;28;20204;-63
2022/12/25 03:27:52;;;;;;;2.57;1.20;;;7.60;99.90;;;;;;4130494;28;20252;-63
2022/12/25 03:32:57;;;;;;;2.60;0.90;;;7.70;99.90;;;;;;4130996;28;20276;-63
2022/12/25 03:35:32;;;;;;;1.67;1.27;;;7.80;99.90;;;;;;4130034;28;20185;-63
2022/12/25 04:37:17;;;;;;;1.20;1.07;;;8.00;99.90;;;;;;4128434;28;20192;-63
2022/12/25 04:39:18;;;;;;;2.77;1.20;;;8.10;99.90;;;;;;4113106;28;20213;-63
2022/12/25 04:41:19;;;;;;;3.50;1.63;;;8.10;99.90;;;;;;4130025;28;20210;-63
2022/12/25 04:43:23;;;;;;;2.30;1.43;;;8.10;99.90;;;;;;4130137;28;20197;-63
2022/12/25 04:45:23;;;;;;;3.93;1.20;;;8.00;99.90;;;;;;4130044;28;20217;-62
2022/12/25 04:47:24;;;;;;;2.10;1.30;;;8.00;99.90;;;;;;4129091;28;20579;-63
2022/12/25 04:49:25;;;;;;;1.97;1.57;;;7.90;99.90;;;;;;4129989;28;20304;-63
2022/12/25 04:51:26;;;;;;;1.20;1.10;;;7.90;99.90;;;;;;4112656;28;20222;-64
2022/12/25 04:53:27;;;;;;;1.53;1.20;;;8.00;99.90;;;;;;4129968;28;20187;-64
2022/12/25 04:55:27;;;;;;;3.03;1.27;;;7.90;99.90;;;;;;4112898;28;21000;-64
2022/12/25 04:57:28;;;;;;;1.83;1.10;;;8.00;99.90;;;;;;4129308;28;20653;-64
2022/12/25 04:59:29;;;;;;;3.63;1.30;;;8.10;99.90;;;;;;4129809;28;20755;-64
2022/12/25 05:01:29;;;;;;;2.93;1.33;;;8.00;99.90;;;;;;4129422;28;20189;-64
2022/12/25 05:03:31;;;;;;;4.50;1.30;;;7.90;99.90;;;;;;4126392;28;20193;-64
2022/12/25 05:05:32;;;;;;;2.93;1.47;;;7.90;99.90;;;;;;4096773;29;20190;-64
2022/12/25 05:07:32;;;;;;;3.03;1.70;;;7.90;99.90;;;;;;4113065;28;20184;-65
2022/12/25 05:09:33;;;;;;;3.17;2.03;;;8.00;99.90;;;;;;4113825;28;20888;-64
2022/12/25 05:11:34;;;;;;;4.13;1.90;;;7.90;99.90;;;;;;4114080;28;20183;-64
2022/12/25 05:13:35;;;;;;;3.73;1.80;;;7.90;99.90;;;;;;4113814;28;20179;-64
2022/12/25 05:15:39;;;;;;;2.60;1.50;;;7.90;99.90;;;;;;4113962;28;20657;-64
2022/12/25 05:17:40;;;;;;;6.60;2.10;;;7.90;99.90;;;;;;4117426;28;20187;-64
2022/12/25 05:19:41;;;;;;;4.10;2.20;;;7.80;99.90;;;;;;4124274;28;20186;-63
2022/12/25 05:21:42;;;;;;;2.63;1.77;;;7.80;99.90;;;;;;4115034;28;20249;-64
2022/12/25 05:23:49;;;;;;;4.97;2.40;;;7.80;99.90;;;;;;4121151;28;20205;-63
2022/12/25 05:25:50;;;;;;;4.90;2.60;;;7.80;99.90;;;;;;4112528;28;20245;-64
2022/12/25 05:27:50;;;;;;;5.80;2.93;;;7.70;99.90;;;;;;4129140;28;20280;-63
2022/12/25 05:29:51;;;;;;;6.27;2.80;;;7.60;99.90;;;;;;4112929;28;20188;-63
2022/12/25 05:31:52;;;;;;;4.43;2.50;;;7.60;99.90;;;;;;4130100;28;20252;-64
2022/12/25 05:33:52;;;;;;;5.87;3.13;;;7.60;99.90;;;;;;4129456;28;20190;-63
2022/12/25 05:35:53;;;;;;;5.13;2.60;;;7.70;99.90;;;;;;4129040;28;20182;-63
2022/12/25 05:37:54;;;;;;;6.20;3.40;;;7.70;99.90;;;;;;4111089;28;20698;-64
2022/12/25 05:39:54;;;;;;;8.70;3.53;;;7.70;99.90;;;;;;4129150;28;20569;-63
2022/12/25 05:41:55;;;;;;;7.60;3.07;;;7.60;99.90;;;;;;4129011;28;20190;-63
2022/12/25 05:43:56;;;;;;;5.93;3.07;;;7.40;99.90;;;;;;4129041;28;20191;-63
2022/12/25 05:45:56;;;;;;;7.13;3.17;;;7.50;99.90;;;;;;4129074;28;20185;-63
2022/12/25 05:47:57;;;;;;;6.70;3.20;;;7.50;99.90;;;;;;4128251;28;20645;-62
2022/12/25 05:49:57;;;;;;;7.50;4.27;;;7.50;99.90;;;;;;4128940;28;20552;-62
2022/12/25 05:51:58;;;;;;;14.90;3.90;;;7.50;99.90;;;;;;4128854;28;20174;-62
2022/12/25 05:53:59;;;;;;;6.80;3.07;;;7.40;99.90;;;;;;4129027;28;20189;-62
2022/12/25 05:56:06;;;;;;;8.97;3.57;;;7.20;99.90;;;;;;4128963;28;20186;-63
2022/12/25 05:58:09;;;;;;;6.47;3.00;;;7.20;99.90;;;;;;4128022;28;20310;-63
2022/12/25 06:00:10;;;;;;;6.37;3.33;;;7.30;99.90;;;;;;4129008;28;20269;-62
2022/12/25 06:02:11;;;;;;;7.03;2.60;;;7.30;99.90;;;;;;4128799;28;20225;-63
2022/12/25 06:04:11;;;;;;;11.67;3.50;;;7.30;99.90;;;;;;4128757;28;20191;-63
2022/12/25 06:06:13;;;;;;;8.97;3.60;;;7.30;99.90;;;;;;4128742;28;20190;-64
2022/12/25 06:08:13;;;;;;;7.17;3.30;;;7.20;99.90;;;;;;4094662;29;20236;-63
2022/12/25 06:10:14;;;;;;;9.37;3.57;;;7.20;99.90;;;;;;4128572;28;20191;-63
2022/12/25 06:12:15;;;;;;;5.83;3.20;;;7.30;99.90;;;;;;4128666;28;20186;-64
2022/12/25 06:14:15;;;;;;;6.20;2.93;;;7.20;99.90;;;;;;4131638;28;20985;-64
2022/12/25 06:16:17;;;;;;;5.93;3.07;;;7.30;99.90;;;;;;4131878;28;20657;-64
2022/12/25 06:18:17;;;;;;;6.27;3.37;;;7.30;99.90;;;;;;4130982;28;20218;-64
2022/12/25 06:20:18;;;;;;;10.30;3.63;;;7.30;99.90;;;;;;4131611;28;20787;-64
2022/12/25 06:22:19;;;;;;;6.63;3.47;;;7.20;99.90;;;;;;4131655;28;20610;-64
2022/12/25 06:24:22;;;;;;;7.80;3.37;;;7.20;99.90;;;;;;4114183;28;20246;-64
2022/12/25 06:26:22;;;;;;;9.80;4.13;;;7.20;99.90;;;;;;4130921;28;20190;-62
2022/12/25 06:28:23;;;;;;;13.83;4.90;;;7.00;99.90;;;;;;4131131;28;20540;-62
2022/12/25 06:30:24;;;;;;;9.27;3.83;;;6.90;99.90;;;;;;4131421;28;20193;-62
2022/12/25 06:32:24;;;;;;;11.13;4.13;;;6.80;99.90;;;;;;4131628;28;20186;-62
2022/12/25 06:34:25;;;;;;;11.83;4.90;;;6.80;99.90;;;;;;4114117;28;20213;-63
2022/12/25 06:36:28;;;;;;;11.53;4.73;;;6.80;99.90;;;;;;4131028;28;20192;-63
2022/12/25 06:38:28;;;;;;;7.47;3.93;;;6.90;99.90;;;;;;4131873;28;20453;-63
2022/12/25 06:40:29;;;;;;;12.60;4.23;;;7.00;99.90;;;;;;4131212;28;20549;-63
2022/12/25 06:42:30;;;;;;;6.70;3.03;;;7.00;99.90;;;;;;4131589;28;20688;-63
2022/12/25 06:44:32;;;;;;;24.77;5.63;;;6.90;99.90;;;;;;4131535;28;20653;-63
2022/12/25 06:46:33;;;;;;;14.67;5.47;;;6.90;99.90;;;;;;4130795;28;20226;-63
2022/12/25 06:48:34;;;;;;;8.93;4.03;;;6.90;99.90;;;;;;4131083;28;20559;-63
2022/12/25 06:50:35;;;;;;;9.93;4.03;;;6.90;99.90;;;;;;4131447;28;20253;-63
2022/12/25 06:52:35;;;;;;;9.87;3.70;;;6.90;99.90;;;;;;4131229;28;20841;-63
2022/12/25 06:54:36;;;;;;;10.57;3.90;;;6.90;99.90;;;;;;4131246;28;20568;-62
2022/12/25 06:56:37;;;;;;;8.33;2.97;;;6.70;99.90;;;;;;4119004;28;20708;-62
2022/12/25 06:58:37;;;;;;;65.20;6.40;;;6.80;99.90;;;;;;4097648;29;20212;-62
2022/12/25 07:00:38;;;;;;;12.33;4.30;;;6.80;99.90;;;;;;4115104;28;20175;-62
2022/12/25 07:02:43;;;;;;;32.90;6.93;;;6.80;99.90;;;;;;4115206;28;20706;-62
2022/12/25 07:04:45;;;;;;;39.23;6.37;;;6.80;99.90;;;;;;4081753;29;20216;-62
2022/12/25 07:06:46;;;;;;;21.47;5.13;;;6.80;99.90;;;;;;4114563;28;20434;-62
2022/12/25 07:08:47;;;;;;;12.23;4.33;;;6.80;99.90;;;;;;4114761;28;20485;-62
2022/12/25 07:10:47;;;;;;;41.53;5.90;;;6.80;99.90;;;;;;4115027;28;20191;-63
2022/12/25 07:12:48;;;;;;;39.90;5.13;;;6.80;99.90;;;;;;4081819;29;20192;-63
2022/12/25 07:14:49;;;;;;;51.40;6.63;;;6.60;99.90;;;;;;4114908;28;20662;-63
2022/12/25 07:16:50;;;;;;;65.10;7.40;;;6.60;99.90;;;;;;4122876;28;20206;-63
2022/12/25 07:18:50;;;;;;;118.67;11.27;;;6.70;99.90;;;;;;4123874;28;20211;-63
2022/12/25 07:20:51;;;;;;;49.77;8.47;;;6.70;99.90;;;;;;4098518;29;20246;-63
2022/12/25 07:22:51;;;;;;;42.47;7.67;;;6.70;99.90;;;;;;4115239;28;20183;-63
2022/12/25 07:24:52;;;;;;;29.10;6.40;;;6.90;99.90;;;;;;4115379;28;20190;-64
2022/12/25 07:26:53;;;;;;;51.33;8.23;;;7.00;99.90;;;;;;4097040;29;20200;-64
2022/12/25 07:28:55;;;;;;;42.40;6.17;;;7.00;99.90;;;;;;4114878;28;20281;-64
2022/12/25 07:31:09;;;;;;;95.83;8.87;;;7.00;99.90;;;;;;4097896;29;20183;-64
2022/12/25 07:33:10;;;;;;;66.33;9.07;;;7.00;99.90;;;;;;4114792;28;20167;-64
2022/12/25 07:35:10;;;;;;;47.23;9.57;;;7.00;99.90;;;;;;4115007;28;20432;-64
2022/12/25 07:37:11;;;;;;;36.23;6.90;;;7.10;99.90;;;;;;4114013;28;20187;-64
2022/12/25 07:39:12;;;;;;;43.13;9.03;;;7.10;99.90;;;;;;4114614;28;20242;-64
2022/12/25 07:41:13;;;;;;;28.37;6.40;;;7.10;99.90;;;;;;4114548;28;20427;-64
2022/12/25 07:43:14;;;;;;;44.13;6.87;;;7.10;99.90;;;;;;4097250;29;20195;-63
2022/12/25 07:45:14;;;;;;;37.33;6.50;;;7.10;99.90;;;;;;4114406;28;20191;-63
2022/12/25 07:47:15;;;;;;;40.63;7.77;;;7.10;99.90;;;;;;4114007;28;20241;-64
2022/12/25 07:49:16;;;;;;;42.07;8.77;;;7.10;99.90;;;;;;4114333;28;20266;-64
2022/12/25 07:51:16;;;;;;;37.33;6.57;;;7.10;99.90;;;;;;4114433;28;20656;-64
2022/12/25 07:53:17;;;;;;;42.83;9.07;;;7.00;99.90;;;;;;4114322;28;20198;-64
2022/12/25 07:55:18;;;;;;;28.93;5.77;;;6.90;99.90;;;;;;4114519;28;20242;-64
2022/12/25 07:57:18;;;;;;;63.87;7.60;;;6.90;99.90;;;;;;4113825;28;20222;-64
2022/12/25 07:59:19;;;;;;;39.00;6.07;;;7.00;99.90;;;;;;4114069;28;20202;-64
2022/12/25 08:01:25;;;;;;;71.10;7.93;;;7.10;99.90;;;;;;4114202;28;20195;-64
2022/12/25 08:03:26;;;;;;;33.23;5.40;;;7.20;99.90;;;;;;4114288;28;20185;-64
2022/12/25 08:05:27;;;;;;;15.23;4.27;;;7.40;99.90;;;;;;4114075;28;20222;-63
2022/12/25 08:07:27;;;;;;;41.43;6.73;;;7.60;99.90;;;;;;4096185;29;20197;-63
2022/12/25 08:09:28;;;;;;;14.30;4.03;;;7.70;99.90;;;;;;4114017;28;20223;-63
2022/12/25 08:11:29;;;;;;;21.77;5.37;;;7.70;99.90;;;;;;4119326;28;20186;-63
2022/12/25 08:13:31;;;;;;;8.47;3.40;;;7.90;99.90;;;;;;4130096;28;20193;-63
2022/12/25 08:15:31;;;;;;;4.40;2.93;;;7.90;99.90;;;;;;4129936;28;20193;-63
2022/12/25 08:17:34;;;;;;;4.90;2.70;;;7.90;99.90;;;;;;4129182;28;20652;-63
2022/12/25 08:19:34;;;;;;;12.00;6.63;;;7.90;99.90;;;;;;4112803;28;20268;-63
2022/12/25 08:21:36;;;;;;;15.87;11.37;;;7.90;99.90;;;;;;4129846;28;20215;-63
2022/12/25 08:23:40;;;;;;;4.40;2.90;;;7.90;99.90;;;;;;4128721;28;20219;-64
2022/12/25 08:25:41;;;;;;;10.67;6.53;;;7.80;99.90;;;;;;4112850;28;20191;-64
2022/12/25 08:27:42;;;;;;;6.10;3.00;;;7.80;99.90;;;;;;4129013;28;20201;-67
2022/12/25 08:29:43;;;;;;;4.33;2.43;;;7.80;99.90;;;;;;4129854;28;20197;-64
2022/12/25 08:31:44;;;;;;;3.73;2.33;;;7.80;99.90;;;;;;4129802;28;20178;-63
2022/12/25 08:33:46;;;;;;;2.97;2.27;;;7.90;99.90;;;;;;4129511;28;20495;-64
2022/12/25 08:35:46;;;;;;;5.93;2.90;;;8.00;99.90;;;;;;4129317;28;20174;-64
2022/12/25 08:37:47;;;;;;;7.00;3.10;;;8.20;99.90;;;;;;4129004;28;20251;-64
2022/12/25 08:39:48;;;;;;;3.30;1.97;;;8.10;99.90;;;;;;4129806;28;20185;-64
2022/12/25 08:41:48;;;;;;;3.43;2.30;;;8.10;99.90;;;;;;4129952;28;20242;-64
2022/12/25 08:43:49;;;;;;;3.90;2.87;;;8.30;99.90;;;;;;4129687;28;20181;-64
2022/12/25 08:45:50;;;;;;;6.57;3.07;;;8.40;99.90;;;;;;4129850;28;20189;-63
2022/12/25 08:47:55;;;;;;;4.90;2.53;;;8.40;99.90;;;;;;4128881;28;20190;-64
2022/12/25 08:49:55;;;;;;;4.73;2.90;;;8.50;99.90;;;;;;4119290;28;20194;-64
2022/12/25 08:51:56;;;;;;;4.80;3.33;;;8.50;99.90;;;;;;4113427;28;20185;-64
2022/12/25 08:53:59;;;;;;;2.83;2.10;;;8.60;99.90;;;;;;4113517;28;20191;-64
2022/12/25 08:56:05;;;;;;;4.87;2.83;;;8.60;99.90;;;;;;4113603;28;20193;-64
2022/12/25 08:58:06;;;;;;;3.03;2.10;;;8.60;99.90;;;;;;4112856;28;20299;-64
2022/12/25 09:00:08;;;;;;;3.17;2.10;;;8.60;99.90;;;;;;4113470;28;20223;-64
2022/12/25 09:02:11;;;;;;;3.30;2.40;;;8.70;99.90;;;;;;4113398;28;20183;-63
2022/12/25 09:04:11;;;;;;;2.67;1.83;;;8.80;99.90;;;;;;4113500;28;20210;-62
2022/12/25 09:06:15;;;;;;;3.13;1.80;;;8.80;99.90;;;;;;4113697;28;20195;-64
2022/12/25 09:08:16;;;;;;;2.97;2.00;;;8.80;99.90;;;;;;4112418;28;20282;-64
2022/12/25 09:10:16;;;;;;;2.87;2.20;;;8.80;99.90;;;;;;4096365;29;20714;-63
2022/12/25 09:12:17;;;;;;;2.27;1.80;;;8.70;99.90;;;;;;4094701;29;20180;-64
2022/12/25 09:14:18;;;;;;;2.47;1.77;;;8.80;99.90;;;;;;4111560;28;20682;-63
2022/12/25 09:16:21;;;;;;;4.10;2.60;;;8.80;99.90;;;;;;4099562;29;20183;-63
2022/12/25 09:18:22;;;;;;;4.17;2.43;;;8.90;99.90;;;;;;4120384;28;20207;-63
2022/12/25 09:20:22;;;;;;;3.63;2.60;;;8.90;99.90;;;;;;4113299;28;20597;-63
2022/12/25 09:22:23;;;;;;;2.80;2.10;;;8.90;99.90;;;;;;4095339;29;20210;-63
2022/12/25 09:24:24;;;;;;;3.23;1.83;;;9.00;99.90;;;;;;4112753;28;20197;-63
2022/12/25 09:26:26;;;;;;;2.20;1.50;;;9.00;99.90;;;;;;4113069;28;20195;-63
2022/12/25 09:28:27;;;;;;;1.70;1.60;;;9.20;99.90;;;;;;4112659;28;20218;-63
2022/12/25 09:30:28;;;;;;;1.63;1.53;;;9.30;99.90;;;;;;4113844;28;20221;-63
2022/12/25 09:32:28;;;;;;;2.00;1.47;;;9.60;99.90;;;;;;4113522;28;20182;-63
2022/12/25 09:34:29;;;;;;;1.80;1.50;;;10.00;99.90;;;;;;4113398;28;20191;-63
2022/12/25 09:36:30;;;;;;;2.33;1.83;;;10.40;99.90;;;;;;4112819;28;20222;-63
2022/12/25 09:38:31;;;;;;;1.30;1.20;;;10.70;99.90;;;;;;4113204;28;20314;-63
2022/12/25 09:40:32;;;;;;;2.47;1.50;;;10.90;99.90;;;;;;4127782;28;20201;-63
2022/12/25 09:42:33;;;;;;;1.07;1.00;;;11.20;99.90;;;;;;4129455;28;20754;-63
2022/12/25 09:44:44;;;;;;;1.37;1.27;;;11.60;99.90;;;;;;4129173;28;20261;-63
2022/12/25 09:46:53;;;;;;;2.50;1.37;;;12.00;99.90;;;;;;4123000;28;20182;-63
2022/12/25 09:49:05;;;;;;;1.07;0.97;;;12.10;99.90;;;;;;4130763;28;20221;-63
2022/12/25 09:51:12;;;;;;;0.90;0.90;;;11.90;99.90;;;;;;4130903;28;20205;-63
2022/12/25 09:53:23;;;;;;;0.90;0.90;;;11.90;99.90;;;;;;4148619;28;20660;-63
2022/12/25 09:55:28;;;;;;;1.00;0.80;;;12.00;99.90;;;;;;4131389;28;20174;-63
2022/12/25 09:57:29;;;;;;;1.23;0.90;;;12.20;99.90;;;;;;4130354;28;20306;-63
2022/12/25 09:59:30;;;;;;;1.37;0.90;;;12.50;99.90;;;;;;4148481;28;20221;-64
2022/12/25 10:02:01;;;;;;;1.23;1.10;;;13.00;98.90;;;;;;4148303;28;20201;-63
2022/12/25 10:04:16;;;;;;;1.30;1.20;;;13.10;98.30;;;;;;4137340;28;20247;-64
2022/12/25 10:06:37;;;;;;;0.97;0.97;;;12.80;98.40;;;;;;4148316;28;20645;-63
2022/12/25 10:08:59;;;;;;;1.00;0.90;;;12.80;99.60;;;;;;4131030;28;20667;-63
2022/12/25 10:11:23;;;;;;;1.53;1.43;;;13.10;98.40;;;;;;4149182;28;20220;-63
2022/12/25 10:13:41;;;;;;;3.53;0.90;;;13.40;97.00;;;;;;4148166;28;20174;-64
2022/12/25 10:16:12;;;;;;;1.20;0.90;;;13.40;96.50;;;;;;4148419;28;20177;-63
2022/12/25 10:18:37;;;;;;;1.30;1.20;;;13.20;97.50;;;;;;4147418;28;20212;-64
2022/12/25 10:20:49;;;;;;;0.83;0.83;;;13.40;97.80;;;;;;4130743;28;20190;-63
2022/12/25 10:22:56;;;;;;;1.27;1.13;;;13.30;96.90;;;;;;4114602;28;20191;-63
2022/12/25 10:24:59;;;;;;;1.00;0.90;;;13.20;97.10;;;;;;4127150;28;20274;-63
2022/12/25 10:27:06;;;;;;;1.03;0.93;;;12.90;97.30;;;;;;4113675;28;20303;-63
2022/12/25 10:29:21;;;;;;;1.27;1.17;;;13.00;97.90;;;;;;4131708;28;20227;-63
2022/12/25 10:31:26;;;;;;;1.17;1.00;;;13.30;97.10;;;;;;4131700;28;20162;-64
2022/12/25 10:33:27;;;;;;;2.67;0.90;;;13.60;96.30;;;;;;4131624;28;20167;-64
2022/12/25 10:35:30;;;;;;;1.20;1.10;;;13.60;95.10;;;;;;4131585;28;20777;-63
2022/12/25 10:37:31;;;;;;;3.20;3.00;;;13.50;95.90;;;;;;4130826;28;20186;-63
2022/12/25 10:39:31;;;;;;;0.80;0.70;;;13.80;95.00;;;;;;4131861;28;20673;-63
2022/12/25 10:41:56;;;;;;;1.10;1.00;;;13.90;93.60;;;;;;4131701;28;20182;-63
2022/12/25 10:43:56;;;;;;;0.80;0.80;;;13.80;93.80;;;;;;4131726;28;20248;-63
2022/12/25 10:45:58;;;;;;;0.93;0.80;;;13.80;94.40;;;;;;4131568;28;20190;-63
2022/12/25 10:48:04;;;;;;;3.50;3.20;;;13.70;94.10;;;;;;4130414;28;20194;-63
2022/12/25 10:50:24;;;;;;;1.23;1.10;;;13.70;94.00;;;;;;4113928;28;20194;-64
2022/12/25 10:52:27;;;;;;;1.37;1.20;;;13.60;94.20;;;;;;4131254;28;20565;-64
2022/12/25 10:54:34;;;;;;;0.80;0.80;;;13.60;94.60;;;;;;4129353;28;20681;-64
2022/12/25 10:56:35;;;;;;;1.57;0.97;;;13.70;94.50;;;;;;4116632;28;20681;-64
2022/12/25 10:58:35;;;;;;;0.77;0.77;;;14.20;93.20;;;;;;4097207;28;20242;-64
2022/12/25 11:00:36;;;;;;;0.90;0.90;;;14.50;92.50;;;;;;4115125;28;20191;-65
2022/12/25 11:02:40;;;;;;;0.80;0.80;;;14.80;91.00;;;;;;4113573;28;20198;-64
2022/12/25 11:04:41;;;;;;;0.70;0.70;;;15.10;89.50;;;;;;4108005;28;20230;-64
2022/12/25 11:06:41;;;;;;;1.40;1.00;;;15.10;88.20;;;;;;4129953;28;20261;-64
2022/12/25 11:08:50;;;;;;;1.00;0.90;;;15.30;86.40;;;;;;4130353;28;20221;-64
2022/12/25 11:10:57;;;;;;;0.80;0.80;;;15.50;85.50;;;;;;4141826;28;20305;-64
2022/12/25 11:13:00;;;;;;;0.97;0.73;;;15.70;84.50;;;;;;4129241;28;20266;-64
2022/12/25 11:15:36;;;;;;;1.57;1.40;;;16.10;82.00;;;;;;4136711;28;20194;-64
2022/12/25 11:17:36;;;;;;;0.90;0.90;;;16.50;80.10;;;;;;4104465;28;20179;-64
2022/12/25 11:19:37;;;;;;;1.10;1.00;;;16.30;79.20;;;;;;4145487;28;20576;-64
2022/12/25 11:21:38;;;;;;;1.57;1.10;;;16.30;79.10;;;;;;4132299;28;20202;-64
2022/12/25 11:23:46;;;;;;;1.63;1.23;;;16.10;79.50;;;;;;4145234;28;20260;-64
2022/12/25 11:26:03;;;;;;;0.70;0.70;;;16.30;78.80;;;;;;4129214;28;20198;-64
2022/12/25 11:28:05;;;;;;;1.10;1.00;;;16.00;80.20;;;;;;4140936;28;20260;-64
2022/12/25 11:30:09;;;;;;;1.43;0.70;;;15.50;82.80;;;;;;4129728;28;20948;-65
2022/12/25 11:32:20;;;;;;;0.93;0.80;;;15.40;83.90;;;;;;4129408;28;20265;-65
2022/12/25 11:34:27;;;;;;;1.20;1.10;;;15.80;80.70;;;;;;4129119;28;20717;-64
2022/12/25 11:36:43;;;;;;;1.83;1.30;;;16.00;79.90;;;;;;4137675;28;20182;-65
2022/12/25 11:38:44;;;;;;;3.93;2.10;;;15.90;80.20;;;;;;4129434;28;20737;-65
2022/12/25 11:40:55;;;;;;;2.57;1.50;;;16.10;78.90;;;;;;4128943;28;20232;-65
2022/12/25 11:43:03;;;;;;;1.60;1.20;;;16.30;77.80;;;;;;4129446;28;20273;-65
2022/12/25 11:45:18;;;;;;;5.60;5.20;;;16.50;76.00;;;;;;4129134;28;20186;-65
2022/12/25 11:47:50;;;;;;;1.13;0.97;;;16.70;75.10;;;;;;4128416;28;20179;-65
2022/12/25 11:50:02;;;;;;;1.87;1.07;;;16.80;74.40;;;;;;4103160;28;20190;-64
2022/12/25 11:52:05;;;;;;;1.40;1.30;;;17.50;72.20;;;;;;4128882;28;20197;-65
2022/12/25 11:54:32;;;;;;;1.67;1.50;;;17.60;70.00;;;;;;4128943;28;20190;-64
2022/12/25 11:56:33;;;;;;;1.30;1.00;;;17.30;69.10;;;;;;4128144;28;20182;-64
2022/12/25 11:58:48;;;;;;;1.70;1.60;;;16.60;73.00;;;;;;4139020;28;20202;-64
2022/12/25 12:00:52;;;;;;;0.93;0.90;;;16.40;74.80;;;;;;4128687;28;20591;-64
2022/12/25 12:03:20;;;;;;;1.47;1.10;;;17.10;73.10;;;;;;4129149;28;20689;-64
2022/12/25 12:05:34;;;;;;;1.17;0.90;;;17.50;70.90;;;;;;4130759;28;20198;-64
2022/12/25 12:07:36;;;;;;;2.83;2.67;;;17.80;69.10;;;;;;4097668;28;20543;-64
2022/12/25 12:09:46;;;;;;;1.07;1.00;;;18.10;67.40;;;;;;4128329;28;20218;-63
2022/12/25 12:12:00;;;;;;;1.07;0.83;;;18.10;67.20;;;;;;4131801;28;20178;-63
2022/12/25 12:14:19;;;;;;;1.53;1.30;;;18.00;70.20;;;;;;4128552;28;20274;-64
2022/12/25 12:16:19;;;;;;;0.97;0.90;;;17.80;70.70;;;;;;4128060;28;20171;-64
2022/12/25 12:18:31;;;;;;;0.83;0.80;;;18.30;70.60;;;;;;4127717;28;20623;-65
2022/12/25 12:20:34;;;;;;;1.13;0.80;;;18.70;66.10;;;;;;4138272;28;20181;-63
2022/12/25 12:22:35;;;;;;;1.10;0.80;;;19.50;61.60;;;;;;4136556;28;20187;-64
2022/12/25 12:24:42;;;;;;;0.77;0.77;;;20.40;58.60;;;;;;4138788;28;20844;-65
2022/12/25 12:26:45;;;;;;;0.80;0.80;;;21.00;57.90;;;;;;4127486;28;20225;-65
2022/12/25 12:28:47;;;;;;;1.37;1.27;;;21.40;52.50;;;;;;4139846;28;20212;-64
2022/12/25 12:31:04;;;;;;;1.10;1.00;;;21.20;53.80;;;;;;4128236;28;20195;-65
2022/12/25 12:33:07;;;;;;;1.20;1.10;;;21.50;52.30;;;;;;4134789;28;20174;-64
2022/12/25 12:35:26;;;;;;;1.10;1.00;;;22.20;50.60;;;;;;4129561;28;20255;-64